sensor_id;sensor_type;location;lat;lon;timestamp;P1;durP1;ratioP1;P2;durP2;ratioP2
1603;SDS011;795;49.296;11.348;2022-11-15T00:01:11;13.23;;;8.40;;
1603;SDS011;795;49.296;11.348;2022-11-15T00:03:44;9.73;;;8.33;;
1603;SDS011;795;49.296;11.348;2022-11-15T00:06:12;13.03;;;9.17;;
1603;SDS011;795;49.296;11.348;2022-11-15T00:08:39;10.80;;;9.10;;
1603;SDS011;795;49.296;11.348;2022-11-15T00:11:06;10.40;;;8.13;;
1603;SDS011;795;49.296;11.348;2022-11-15T00:13:37;10.67;;;9.03;;
1603;SDS011;795;49.296;11.348;2022-11-15T00:16:06;8.70;;;7.70;;
1603;SDS011;795;49.296;11.348;2022-11-15T00:18:35;9.53;;;8.47;;
1603;SDS011;795;49.296;11.348;2022-11-15T00:21:04;8.60;;;7.70;;
1603;SDS011;795;49.296;11.348;2022-11-15T00:23:37;10.17;;;8.43;;
1603;SDS011;795;49.296;11.348;2022-11-15T00:26:04;11.30;;;8.40;;
1603;SDS011;795;49.296;11.348;2022-11-15T00:28:31;11.80;;;9.73;;
1603;SDS011;795;49.296;11.348;2022-11-15T00:31:06;9.60;;;7.80;;
1603;SDS011;795;49.296;11.348;2022-11-15T00:33:40;9.70;;;8.20;;
1603;SDS011;795;49.296;11.348;2022-11-15T00:36:11;12.03;;;9.60;;
1603;SDS011;795;49.296;11.348;2022-11-15T00:38:39;10.27;;;8.03;;
1603;SDS011;795;49.296;11.348;2022-11-15T00:41:07;9.87;;;8.87;;
1603;SDS011;795;49.296;11.348;2022-11-15T00:43:35;9.20;;;8.30;;
1603;SDS011;795;49.296;11.348;2022-11-15T00:46:02;9.47;;;8.17;;
1603;SDS011;795;49.296;11.348;2022-11-15T00:48:30;9.53;;;7.87;;
1603;SDS011;795;49.296;11.348;2022-11-15T00:50:57;9.63;;;8.20;;
1603;SDS011;795;49.296;11.348;2022-11-15T00:53:24;8.43;;;7.63;;
1603;SDS011;795;49.296;11.348;2022-11-15T00:55:51;8.33;;;6.83;;
1603;SDS011;795;49.296;11.348;2022-11-15T00:58:19;10.73;;;8.00;;
1603;SDS011;795;49.296;11.348;2022-11-15T01:00:46;9.30;;;7.50;;
1603;SDS011;795;49.296;11.348;2022-11-15T01:03:13;7.83;;;6.80;;
1603;SDS011;795;49.296;11.348;2022-11-15T01:05:39;10.63;;;8.20;;
1603;SDS011;795;49.296;11.348;2022-11-15T01:08:10;8.63;;;7.07;;
1603;SDS011;795;49.296;11.348;2022-11-15T01:10:40;8.07;;;7.23;;
1603;SDS011;795;49.296;11.348;2022-11-15T01:13:08;6.97;;;6.27;;
1603;SDS011;795;49.296;11.348;2022-11-15T01:15:38;8.03;;;6.80;;
1603;SDS011;795;49.296;11.348;2022-11-15T01:18:07;7.90;;;7.10;;
1603;SDS011;795;49.296;11.348;2022-11-15T01:20:34;9.00;;;7.23;;
1603;SDS011;795;49.296;11.348;2022-11-15T01:23:05;9.30;;;7.77;;
1603;SDS011;795;49.296;11.348;2022-11-15T01:25:32;8.07;;;7.10;;
1603;SDS011;795;49.296;11.348;2022-11-15T01:28:00;7.63;;;6.30;;
1603;SDS011;795;49.296;11.348;2022-11-15T01:30:26;8.30;;;6.57;;
1603;SDS011;795;49.296;11.348;2022-11-15T01:32:53;8.90;;;6.80;;
1603;SDS011;795;49.296;11.348;2022-11-15T01:35:20;7.27;;;6.20;;
1603;SDS011;795;49.296;11.348;2022-11-15T01:37:47;8.00;;;7.20;;
1603;SDS011;795;49.296;11.348;2022-11-15T01:40:14;7.23;;;6.27;;
1603;SDS011;795;49.296;11.348;2022-11-15T01:42:41;10.17;;;6.57;;
1603;SDS011;795;49.296;11.348;2022-11-15T01:45:17;7.73;;;6.70;;
1603;SDS011;795;49.296;11.348;2022-11-15T01:47:45;11.97;;;6.93;;
1603;SDS011;795;49.296;11.348;2022-11-15T01:50:22;8.90;;;6.80;;
1603;SDS011;795;49.296;11.348;2022-11-15T01:52:58;10.07;;;7.07;;
1603;SDS011;795;49.296;11.348;2022-11-15T01:55:26;7.37;;;6.13;;
1603;SDS011;795;49.296;11.348;2022-11-15T01:57:56;6.90;;;6.30;;
1603;SDS011;795;49.296;11.348;2022-11-15T02:00:30;7.30;;;6.20;;
1603;SDS011;795;49.296;11.348;2022-11-15T02:02:58;7.33;;;6.57;;
1603;SDS011;795;49.296;11.348;2022-11-15T02:05:25;8.63;;;6.17;;
1603;SDS011;795;49.296;11.348;2022-11-15T02:07:52;7.83;;;6.70;;
1603;SDS011;795;49.296;11.348;2022-11-15T02:10:21;7.30;;;6.30;;
1603;SDS011;795;49.296;11.348;2022-11-15T02:12:51;7.20;;;6.23;;
1603;SDS011;795;49.296;11.348;2022-11-15T02:15:20;6.13;;;5.43;;
1603;SDS011;795;49.296;11.348;2022-11-15T02:30:36;6.97;;;5.77;;
1603;SDS011;795;49.296;11.348;2022-11-15T02:33:28;6.00;;;5.40;;
1603;SDS011;795;49.296;11.348;2022-11-15T02:36:26;7.13;;;6.43;;
1603;SDS011;795;49.296;11.348;2022-11-15T02:39:18;6.93;;;5.87;;
1603;SDS011;795;49.296;11.348;2022-11-15T02:42:09;7.23;;;6.10;;
1603;SDS011;795;49.296;11.348;2022-11-15T02:45:07;6.07;;;5.43;;
1603;SDS011;795;49.296;11.348;2022-11-15T02:47:48;5.97;;;5.37;;
1603;SDS011;795;49.296;11.348;2022-11-15T02:50:24;5.70;;;5.20;;
1603;SDS011;795;49.296;11.348;2022-11-15T02:52:56;7.70;;;6.03;;
1603;SDS011;795;49.296;11.348;2022-11-15T02:55:30;6.40;;;5.87;;
1603;SDS011;795;49.296;11.348;2022-11-15T03:03:59;6.80;;;5.80;;
1603;SDS011;795;49.296;11.348;2022-11-15T03:07:02;6.80;;;6.20;;
1603;SDS011;795;49.296;11.348;2022-11-15T03:10:05;7.43;;;5.63;;
1603;SDS011;795;49.296;11.348;2022-11-15T03:12:53;6.13;;;5.53;;
1603;SDS011;795;49.296;11.348;2022-11-15T03:15:41;6.77;;;6.17;;
1603;SDS011;795;49.296;11.348;2022-11-15T03:18:32;6.00;;;5.23;;
1603;SDS011;795;49.296;11.348;2022-11-15T03:21:07;5.00;;;4.60;;
1603;SDS011;795;49.296;11.348;2022-11-15T03:23:39;5.90;;;5.40;;
1603;SDS011;795;49.296;11.348;2022-11-15T03:26:08;7.77;;;5.93;;
1603;SDS011;795;49.296;11.348;2022-11-15T03:29:03;7.37;;;6.30;;
1603;SDS011;795;49.296;11.348;2022-11-15T03:31:55;5.47;;;4.93;;
1603;SDS011;795;49.296;11.348;2022-11-15T03:34:39;9.23;;;5.57;;
1603;SDS011;795;49.296;11.348;2022-11-15T03:37:22;6.13;;;5.20;;
1603;SDS011;795;49.296;11.348;2022-11-15T03:40:03;5.90;;;5.30;;
1603;SDS011;795;49.296;11.348;2022-11-15T03:42:34;5.90;;;5.30;;
1603;SDS011;795;49.296;11.348;2022-11-15T03:45:27;6.23;;;5.00;;
1603;SDS011;795;49.296;11.348;2022-11-15T03:48:08;6.63;;;5.30;;
1603;SDS011;795;49.296;11.348;2022-11-15T03:50:45;6.07;;;5.47;;
1603;SDS011;795;49.296;11.348;2022-11-15T03:53:13;5.80;;;4.90;;
1603;SDS011;795;49.296;11.348;2022-11-15T03:55:40;5.47;;;4.97;;
1603;SDS011;795;49.296;11.348;2022-11-15T03:58:07;5.87;;;5.37;;
1603;SDS011;795;49.296;11.348;2022-11-15T04:00:34;6.50;;;5.10;;
1603;SDS011;795;49.296;11.348;2022-11-15T04:03:01;8.20;;;5.17;;
1603;SDS011;795;49.296;11.348;2022-11-15T04:05:28;6.07;;;5.43;;
1603;SDS011;795;49.296;11.348;2022-11-15T04:07:55;5.63;;;4.90;;
1603;SDS011;795;49.296;11.348;2022-11-15T04:10:22;6.97;;;5.40;;
1603;SDS011;795;49.296;11.348;2022-11-15T04:12:49;5.70;;;5.10;;
1603;SDS011;795;49.296;11.348;2022-11-15T04:15:17;8.87;;;5.33;;
1603;SDS011;795;49.296;11.348;2022-11-15T04:17:49;5.93;;;5.33;;
1603;SDS011;795;49.296;11.348;2022-11-15T04:20:21;6.70;;;5.43;;
1603;SDS011;795;49.296;11.348;2022-11-15T04:23:25;6.27;;;5.00;;
1603;SDS011;795;49.296;11.348;2022-11-15T04:26:11;6.57;;;5.30;;
1603;SDS011;795;49.296;11.348;2022-11-15T04:28:45;5.30;;;4.77;;
1603;SDS011;795;49.296;11.348;2022-11-15T04:31:31;5.87;;;5.20;;
1603;SDS011;795;49.296;11.348;2022-11-15T04:33:58;6.37;;;5.57;;
1603;SDS011;795;49.296;11.348;2022-11-15T04:36:25;6.20;;;5.33;;
1603;SDS011;795;49.296;11.348;2022-11-15T04:39:11;5.10;;;4.60;;
1603;SDS011;795;49.296;11.348;2022-11-15T04:41:37;5.30;;;4.80;;
1603;SDS011;795;49.296;11.348;2022-11-15T04:44:04;5.50;;;4.90;;
1603;SDS011;795;49.296;11.348;2022-11-15T04:46:31;5.20;;;4.70;;
1603;SDS011;795;49.296;11.348;2022-11-15T04:48:58;6.10;;;5.53;;
1603;SDS011;795;49.296;11.348;2022-11-15T04:51:25;7.53;;;6.00;;
1603;SDS011;795;49.296;11.348;2022-11-15T04:53:52;5.93;;;5.33;;
1603;SDS011;795;49.296;11.348;2022-11-15T04:56:19;7.90;;;5.90;;
1603;SDS011;795;49.296;11.348;2022-11-15T04:58:48;6.83;;;5.40;;
1603;SDS011;795;49.296;11.348;2022-11-15T05:01:16;6.07;;;5.50;;
1603;SDS011;795;49.296;11.348;2022-11-15T05:03:44;7.20;;;5.30;;
1603;SDS011;795;49.296;11.348;2022-11-15T05:06:30;5.70;;;5.20;;
1603;SDS011;795;49.296;11.348;2022-11-15T05:08:57;5.40;;;4.90;;
1603;SDS011;795;49.296;11.348;2022-11-15T05:11:24;7.27;;;5.53;;
1603;SDS011;795;49.296;11.348;2022-11-15T05:13:52;6.83;;;5.53;;
1603;SDS011;795;49.296;11.348;2022-11-15T05:16:20;8.70;;;5.63;;
1603;SDS011;795;49.296;11.348;2022-11-15T05:18:50;11.00;;;6.00;;
1603;SDS011;795;49.296;11.348;2022-11-15T05:21:19;8.20;;;6.73;;
1603;SDS011;795;49.296;11.348;2022-11-15T05:23:47;7.50;;;6.10;;
1603;SDS011;795;49.296;11.348;2022-11-15T05:26:15;6.97;;;5.13;;
1603;SDS011;795;49.296;11.348;2022-11-15T05:28:44;5.87;;;5.20;;
1603;SDS011;795;49.296;11.348;2022-11-15T05:31:12;6.60;;;5.90;;
1603;SDS011;795;49.296;11.348;2022-11-15T05:33:42;6.37;;;5.77;;
1603;SDS011;795;49.296;11.348;2022-11-15T05:39:12;7.33;;;5.63;;
1603;SDS011;795;49.296;11.348;2022-11-15T05:41:46;6.50;;;5.83;;
1603;SDS011;795;49.296;11.348;2022-11-15T05:44:30;7.03;;;6.07;;
1603;SDS011;795;49.296;11.348;2022-11-15T05:46:59;8.03;;;6.00;;
1603;SDS011;795;49.296;11.348;2022-11-15T05:49:30;6.57;;;5.50;;
1603;SDS011;795;49.296;11.348;2022-11-15T05:52:04;9.77;;;6.33;;
1603;SDS011;795;49.296;11.348;2022-11-15T05:54:37;10.80;;;6.33;;
1603;SDS011;795;49.296;11.348;2022-11-15T05:57:05;8.00;;;6.40;;
1603;SDS011;795;49.296;11.348;2022-11-15T05:59:33;8.20;;;6.70;;
1603;SDS011;795;49.296;11.348;2022-11-15T06:02:01;7.63;;;5.97;;
1603;SDS011;795;49.296;11.348;2022-11-15T06:04:28;8.83;;;5.60;;
1603;SDS011;795;49.296;11.348;2022-11-15T06:06:55;6.43;;;5.33;;
1603;SDS011;795;49.296;11.348;2022-11-15T06:09:25;7.67;;;5.40;;
1603;SDS011;795;49.296;11.348;2022-11-15T06:11:52;9.50;;;6.33;;
1603;SDS011;795;49.296;11.348;2022-11-15T06:14:19;8.97;;;6.40;;
1603;SDS011;795;49.296;11.348;2022-11-15T06:16:46;10.00;;;7.47;;
1603;SDS011;795;49.296;11.348;2022-11-15T06:19:13;9.27;;;7.00;;
1603;SDS011;795;49.296;11.348;2022-11-15T06:21:40;9.83;;;6.50;;
1603;SDS011;795;49.296;11.348;2022-11-15T06:24:07;10.37;;;6.30;;
1603;SDS011;795;49.296;11.348;2022-11-15T06:26:34;7.00;;;6.23;;
1603;SDS011;795;49.296;11.348;2022-11-15T06:29:02;6.83;;;5.93;;
1603;SDS011;795;49.296;11.348;2022-11-15T06:31:31;8.63;;;7.73;;
1603;SDS011;795;49.296;11.348;2022-11-15T06:33:59;8.30;;;6.60;;
1603;SDS011;795;49.296;11.348;2022-11-15T06:36:26;7.57;;;6.83;;
1603;SDS011;795;49.296;11.348;2022-11-15T06:38:53;7.37;;;5.90;;
1603;SDS011;795;49.296;11.348;2022-11-15T06:41:20;8.90;;;6.90;;
1603;SDS011;795;49.296;11.348;2022-11-15T06:43:47;10.60;;;6.90;;
1603;SDS011;795;49.296;11.348;2022-11-15T06:46:14;10.10;;;6.10;;
1603;SDS011;795;49.296;11.348;2022-11-15T06:48:41;13.07;;;7.93;;
1603;SDS011;795;49.296;11.348;2022-11-15T06:51:07;9.40;;;8.27;;
1603;SDS011;795;49.296;11.348;2022-11-15T06:53:34;8.57;;;7.43;;
1603;SDS011;795;49.296;11.348;2022-11-15T06:56:05;8.30;;;7.07;;
1603;SDS011;795;49.296;11.348;2022-11-15T06:58:33;9.17;;;7.33;;
1603;SDS011;795;49.296;11.348;2022-11-15T07:01:02;8.70;;;7.83;;
1603;SDS011;795;49.296;11.348;2022-11-15T07:03:40;11.50;;;7.03;;
1603;SDS011;795;49.296;11.348;2022-11-15T07:06:09;10.67;;;7.80;;
1603;SDS011;795;49.296;11.348;2022-11-15T07:08:36;7.70;;;6.60;;
1603;SDS011;795;49.296;11.348;2022-11-15T07:11:05;7.70;;;6.80;;
1603;SDS011;795;49.296;11.348;2022-11-15T07:13:34;8.00;;;6.17;;
1603;SDS011;795;49.296;11.348;2022-11-15T07:16:03;6.87;;;6.00;;
1603;SDS011;795;49.296;11.348;2022-11-15T07:18:35;8.10;;;5.90;;
1603;SDS011;795;49.296;11.348;2022-11-15T07:21:06;6.40;;;5.80;;
1603;SDS011;795;49.296;11.348;2022-11-15T07:23:37;7.20;;;6.50;;
1603;SDS011;795;49.296;11.348;2022-11-15T07:26:05;10.63;;;6.33;;
1603;SDS011;795;49.296;11.348;2022-11-15T07:28:34;10.73;;;6.57;;
1603;SDS011;795;49.296;11.348;2022-11-15T07:31:03;7.10;;;6.40;;
1603;SDS011;795;49.296;11.348;2022-11-15T07:33:32;6.47;;;5.80;;
1603;SDS011;795;49.296;11.348;2022-11-15T07:36:02;8.10;;;7.30;;
1603;SDS011;795;49.296;11.348;2022-11-15T07:38:32;7.40;;;6.10;;
1603;SDS011;795;49.296;11.348;2022-11-15T07:41:07;6.93;;;6.23;;
1603;SDS011;795;49.296;11.348;2022-11-15T07:43:35;7.27;;;6.00;;
1603;SDS011;795;49.296;11.348;2022-11-15T07:46:05;10.13;;;7.50;;
1603;SDS011;795;49.296;11.348;2022-11-15T07:48:36;8.93;;;6.93;;
1603;SDS011;795;49.296;11.348;2022-11-15T07:51:11;8.90;;;7.03;;
1603;SDS011;795;49.296;11.348;2022-11-15T07:53:40;7.80;;;6.70;;
1603;SDS011;795;49.296;11.348;2022-11-15T07:56:09;8.47;;;7.67;;
1603;SDS011;795;49.296;11.348;2022-11-15T07:58:38;8.63;;;7.77;;
1603;SDS011;795;49.296;11.348;2022-11-15T08:01:05;9.37;;;8.00;;
1603;SDS011;795;49.296;11.348;2022-11-15T08:03:36;10.03;;;6.97;;
1603;SDS011;795;49.296;11.348;2022-11-15T08:06:03;7.40;;;6.70;;
1603;SDS011;795;49.296;11.348;2022-11-15T08:08:31;10.43;;;6.70;;
1603;SDS011;795;49.296;11.348;2022-11-15T08:10:58;7.90;;;7.10;;
1603;SDS011;795;49.296;11.348;2022-11-15T08:13:26;7.00;;;6.23;;
1603;SDS011;795;49.296;11.348;2022-11-15T08:16:00;8.27;;;7.37;;
1603;SDS011;795;49.296;11.348;2022-11-15T08:18:31;10.30;;;7.30;;
1603;SDS011;795;49.296;11.348;2022-11-15T08:20:59;7.93;;;7.13;;
1603;SDS011;795;49.296;11.348;2022-11-15T08:23:27;7.03;;;6.33;;
1603;SDS011;795;49.296;11.348;2022-11-15T08:25:59;9.17;;;6.57;;
1603;SDS011;795;49.296;11.348;2022-11-15T08:28:28;7.93;;;6.80;;
1603;SDS011;795;49.296;11.348;2022-11-15T08:30:57;7.00;;;6.30;;
1603;SDS011;795;49.296;11.348;2022-11-15T08:33:24;9.27;;;7.33;;
1603;SDS011;795;49.296;11.348;2022-11-15T08:35:51;6.73;;;6.10;;
1603;SDS011;795;49.296;11.348;2022-11-15T08:38:21;7.50;;;6.80;;
1603;SDS011;795;49.296;11.348;2022-11-15T08:40:49;7.70;;;6.90;;
1603;SDS011;795;49.296;11.348;2022-11-15T08:43:25;6.43;;;5.83;;
1603;SDS011;795;49.296;11.348;2022-11-15T08:45:51;8.93;;;6.03;;
1603;SDS011;795;49.296;11.348;2022-11-15T08:48:23;5.70;;;5.20;;
1603;SDS011;795;49.296;11.348;2022-11-15T08:50:53;7.70;;;6.67;;
1603;SDS011;795;49.296;11.348;2022-11-15T08:53:22;6.50;;;5.80;;
1603;SDS011;795;49.296;11.348;2022-11-15T08:55:49;7.50;;;6.70;;
1603;SDS011;795;49.296;11.348;2022-11-15T08:58:16;6.20;;;5.60;;
1603;SDS011;795;49.296;11.348;2022-11-15T09:03:51;7.60;;;6.40;;
1603;SDS011;795;49.296;11.348;2022-11-15T09:06:18;5.80;;;5.20;;
1603;SDS011;795;49.296;11.348;2022-11-15T09:08:45;5.73;;;5.23;;
1603;SDS011;795;49.296;11.348;2022-11-15T09:11:13;7.20;;;6.50;;
1603;SDS011;795;49.296;11.348;2022-11-15T09:13:42;6.13;;;5.53;;
1603;SDS011;795;49.296;11.348;2022-11-15T09:16:09;7.20;;;5.90;;
1603;SDS011;795;49.296;11.348;2022-11-15T09:18:38;7.97;;;6.30;;
1603;SDS011;795;49.296;11.348;2022-11-15T09:21:04;5.97;;;5.43;;
1603;SDS011;795;49.296;11.348;2022-11-15T09:23:31;5.10;;;4.60;;
1603;SDS011;795;49.296;11.348;2022-11-15T09:26:02;6.10;;;5.10;;
1603;SDS011;795;49.296;11.348;2022-11-15T09:28:31;5.67;;;5.17;;
1603;SDS011;795;49.296;11.348;2022-11-15T09:31:01;5.30;;;4.80;;
1603;SDS011;795;49.296;11.348;2022-11-15T09:33:31;6.63;;;5.53;;
1603;SDS011;795;49.296;11.348;2022-11-15T09:36:03;5.90;;;5.40;;
1603;SDS011;795;49.296;11.348;2022-11-15T09:38:34;7.57;;;5.17;;
1603;SDS011;795;49.296;11.348;2022-11-15T09:41:12;5.77;;;5.20;;
1603;SDS011;795;49.296;11.348;2022-11-15T09:44:42;6.57;;;5.80;;
1603;SDS011;795;49.296;11.348;2022-11-15T09:50:55;5.90;;;5.10;;
1603;SDS011;795;49.296;11.348;2022-11-15T09:53:39;7.20;;;5.47;;
1603;SDS011;795;49.296;11.348;2022-11-15T09:56:46;5.63;;;5.00;;
1603;SDS011;795;49.296;11.348;2022-11-15T09:59:20;5.67;;;5.17;;
1603;SDS011;795;49.296;11.348;2022-11-15T10:05:38;5.67;;;5.00;;
1603;SDS011;795;49.296;11.348;2022-11-15T10:11:47;4.40;;;4.00;;
1603;SDS011;795;49.296;11.348;2022-11-15T10:14:17;4.87;;;4.13;;
1603;SDS011;795;49.296;11.348;2022-11-15T10:20:00;4.03;;;3.73;;
1603;SDS011;795;49.296;11.348;2022-11-15T10:22:58;3.93;;;3.60;;
1603;SDS011;795;49.296;11.348;2022-11-15T10:25:33;5.17;;;4.23;;
1603;SDS011;795;49.296;11.348;2022-11-15T10:30:43;4.53;;;3.73;;
1603;SDS011;795;49.296;11.348;2022-11-15T10:46:46;5.73;;;4.70;;
1603;SDS011;795;49.296;11.348;2022-11-15T10:49:23;4.37;;;3.97;;
1603;SDS011;795;49.296;11.348;2022-11-15T10:51:57;7.90;;;4.03;;
1603;SDS011;795;49.296;11.348;2022-11-15T10:54:47;4.17;;;3.80;;
1603;SDS011;795;49.296;11.348;2022-11-15T10:57:48;3.90;;;3.43;;
1603;SDS011;795;49.296;11.348;2022-11-15T11:00:35;3.97;;;3.57;;
1603;SDS011;795;49.296;11.348;2022-11-15T11:03:31;4.23;;;3.83;;
1603;SDS011;795;49.296;11.348;2022-11-15T11:06:08;5.00;;;4.60;;
1603;SDS011;795;49.296;11.348;2022-11-15T11:09:00;4.20;;;3.80;;
1603;SDS011;795;49.296;11.348;2022-11-15T11:11:45;4.17;;;3.77;;
1603;SDS011;795;49.296;11.348;2022-11-15T11:14:22;5.10;;;4.60;;
1603;SDS011;795;49.296;11.348;2022-11-15T11:19:46;4.40;;;4.00;;
1603;SDS011;795;49.296;11.348;2022-11-15T11:23:13;5.43;;;4.93;;
1603;SDS011;795;49.296;11.348;2022-11-15T11:26:32;5.87;;;5.27;;
1603;SDS011;795;49.296;11.348;2022-11-15T11:29:26;5.50;;;4.57;;
1603;SDS011;795;49.296;11.348;2022-11-15T11:32:36;5.47;;;4.47;;
1603;SDS011;795;49.296;11.348;2022-11-15T11:39:09;7.10;;;5.63;;
1603;SDS011;795;49.296;11.348;2022-11-15T11:46:05;4.73;;;4.33;;
1603;SDS011;795;49.296;11.348;2022-11-15T11:49:33;5.23;;;4.73;;
1603;SDS011;795;49.296;11.348;2022-11-15T11:52:13;5.90;;;5.30;;
1603;SDS011;795;49.296;11.348;2022-11-15T11:55:43;5.30;;;4.73;;
1603;SDS011;795;49.296;11.348;2022-11-15T12:01:10;6.97;;;5.70;;
1603;SDS011;795;49.296;11.348;2022-11-15T12:04:17;4.67;;;4.27;;
1603;SDS011;795;49.296;11.348;2022-11-15T12:06:54;6.23;;;5.63;;
1603;SDS011;795;49.296;11.348;2022-11-15T12:09:57;7.10;;;5.47;;
1603;SDS011;795;49.296;11.348;2022-11-15T12:15:42;5.50;;;4.67;;
1603;SDS011;795;49.296;11.348;2022-11-15T12:18:34;5.80;;;5.03;;
1603;SDS011;795;49.296;11.348;2022-11-15T12:21:05;5.50;;;5.00;;
1603;SDS011;795;49.296;11.348;2022-11-15T12:23:55;6.83;;;5.50;;
1603;SDS011;795;49.296;11.348;2022-11-15T12:26:39;6.80;;;6.10;;
1603;SDS011;795;49.296;11.348;2022-11-15T12:29:36;6.63;;;4.53;;
1603;SDS011;795;49.296;11.348;2022-11-15T12:35:01;5.73;;;5.13;;
1603;SDS011;795;49.296;11.348;2022-11-15T12:37:48;7.00;;;5.27;;
1603;SDS011;795;49.296;11.348;2022-11-15T12:43:38;5.77;;;5.27;;
1603;SDS011;795;49.296;11.348;2022-11-15T13:20:55;5.93;;;5.40;;
1603;SDS011;795;49.296;11.348;2022-11-15T13:23:27;7.17;;;5.60;;
1603;SDS011;795;49.296;11.348;2022-11-15T13:26:12;9.37;;;6.90;;
1603;SDS011;795;49.296;11.348;2022-11-15T13:28:47;7.03;;;6.33;;
1603;SDS011;795;49.296;11.348;2022-11-15T13:37:36;7.53;;;6.00;;
1603;SDS011;795;49.296;11.348;2022-11-15T13:40:22;8.00;;;5.77;;
1603;SDS011;795;49.296;11.348;2022-11-15T13:43:12;8.00;;;7.20;;
1603;SDS011;795;49.296;11.348;2022-11-15T13:48:58;5.43;;;4.93;;
1603;SDS011;795;49.296;11.348;2022-11-15T13:51:47;6.17;;;4.50;;
1603;SDS011;795;49.296;11.348;2022-11-15T13:54:23;6.40;;;5.33;;
1603;SDS011;795;49.296;11.348;2022-11-15T13:57:05;6.17;;;5.53;;
1603;SDS011;795;49.296;11.348;2022-11-15T13:59:45;9.50;;;5.83;;
1603;SDS011;795;49.296;11.348;2022-11-15T14:02:27;8.00;;;6.97;;
1603;SDS011;795;49.296;11.348;2022-11-15T14:05:03;7.93;;;5.80;;
1603;SDS011;795;49.296;11.348;2022-11-15T14:07:57;6.40;;;5.50;;
1603;SDS011;795;49.296;11.348;2022-11-15T14:10:38;7.57;;;4.83;;
1603;SDS011;795;49.296;11.348;2022-11-15T14:13:10;5.00;;;4.50;;
1603;SDS011;795;49.296;11.348;2022-11-15T14:18:50;6.43;;;5.40;;
1603;SDS011;795;49.296;11.348;2022-11-15T14:21:19;6.53;;;5.10;;
1603;SDS011;795;49.296;11.348;2022-11-15T14:23:46;6.60;;;5.10;;
1603;SDS011;795;49.296;11.348;2022-11-15T14:26:31;6.70;;;4.77;;
1603;SDS011;795;49.296;11.348;2022-11-15T14:29:21;5.00;;;4.50;;
1603;SDS011;795;49.296;11.348;2022-11-15T14:31:53;5.00;;;4.50;;
1603;SDS011;795;49.296;11.348;2022-11-15T14:34:40;6.00;;;5.07;;
1603;SDS011;795;49.296;11.348;2022-11-15T14:37:18;6.40;;;4.63;;
1603;SDS011;795;49.296;11.348;2022-11-15T14:39:59;5.47;;;4.97;;
1603;SDS011;795;49.296;11.348;2022-11-15T14:42:31;6.33;;;5.00;;
1603;SDS011;795;49.296;11.348;2022-11-15T14:44:58;5.27;;;4.00;;
1603;SDS011;795;49.296;11.348;2022-11-15T14:47:25;5.00;;;4.60;;
1603;SDS011;795;49.296;11.348;2022-11-15T14:49:52;6.20;;;4.43;;
1603;SDS011;795;49.296;11.348;2022-11-15T14:54:58;5.20;;;4.47;;
1603;SDS011;795;49.296;11.348;2022-11-15T14:57:28;8.93;;;4.77;;
1603;SDS011;795;49.296;11.348;2022-11-15T14:59:56;5.07;;;4.57;;
1603;SDS011;795;49.296;11.348;2022-11-15T15:02:23;5.90;;;5.37;;
1603;SDS011;795;49.296;11.348;2022-11-15T15:04:53;6.13;;;5.53;;
1603;SDS011;795;49.296;11.348;2022-11-15T15:07:20;5.87;;;5.30;;
1603;SDS011;795;49.296;11.348;2022-11-15T15:09:48;12.50;;;5.50;;
1603;SDS011;795;49.296;11.348;2022-11-15T15:12:19;17.50;;;15.03;;
1603;SDS011;795;49.296;11.348;2022-11-15T15:14:50;12.23;;;8.50;;
1603;SDS011;795;49.296;11.348;2022-11-15T15:17:17;6.53;;;5.93;;
1603;SDS011;795;49.296;11.348;2022-11-15T15:19:44;6.90;;;4.53;;
1603;SDS011;795;49.296;11.348;2022-11-15T15:22:15;6.40;;;5.80;;
1603;SDS011;795;49.296;11.348;2022-11-15T15:24:47;11.37;;;5.17;;
1603;SDS011;795;49.296;11.348;2022-11-15T15:27:14;6.13;;;5.07;;
1603;SDS011;795;49.296;11.348;2022-11-15T15:29:41;6.40;;;4.90;;
1603;SDS011;795;49.296;11.348;2022-11-15T15:32:08;7.40;;;5.30;;
1603;SDS011;795;49.296;11.348;2022-11-15T15:34:36;5.93;;;4.60;;
1603;SDS011;795;49.296;11.348;2022-11-15T15:37:21;7.60;;;5.33;;
1603;SDS011;795;49.296;11.348;2022-11-15T15:39:52;5.67;;;4.90;;
1603;SDS011;795;49.296;11.348;2022-11-15T15:42:22;6.80;;;5.33;;
1603;SDS011;795;49.296;11.348;2022-11-15T15:44:50;5.30;;;4.90;;
1603;SDS011;795;49.296;11.348;2022-11-15T15:47:21;11.97;;;5.67;;
1603;SDS011;795;49.296;11.348;2022-11-15T15:49:50;7.07;;;5.67;;
1603;SDS011;795;49.296;11.348;2022-11-15T15:52:17;7.60;;;6.50;;
1603;SDS011;795;49.296;11.348;2022-11-15T15:54:45;8.50;;;7.20;;
1603;SDS011;795;49.296;11.348;2022-11-15T15:57:12;7.30;;;6.60;;
1603;SDS011;795;49.296;11.348;2022-11-15T15:59:40;10.07;;;8.80;;
1603;SDS011;795;49.296;11.348;2022-11-15T16:02:16;12.07;;;9.27;;
1603;SDS011;795;49.296;11.348;2022-11-15T16:04:43;16.27;;;11.40;;
1603;SDS011;795;49.296;11.348;2022-11-15T16:07:15;15.13;;;11.00;;
1603;SDS011;795;49.296;11.348;2022-11-15T16:09:50;18.70;;;11.87;;
1603;SDS011;795;49.296;11.348;2022-11-15T16:12:26;16.47;;;11.30;;
1603;SDS011;795;49.296;11.348;2022-11-15T16:15:01;11.00;;;8.40;;
1603;SDS011;795;49.296;11.348;2022-11-15T16:17:33;14.70;;;8.73;;
1603;SDS011;795;49.296;11.348;2022-11-15T16:20:19;10.00;;;8.03;;
1603;SDS011;795;49.296;11.348;2022-11-15T16:23:01;14.00;;;10.53;;
1603;SDS011;795;49.296;11.348;2022-11-15T16:25:37;13.00;;;10.30;;
1603;SDS011;795;49.296;11.348;2022-11-15T16:28:21;11.93;;;10.27;;
1603;SDS011;795;49.296;11.348;2022-11-15T16:31:26;18.60;;;9.07;;
1603;SDS011;795;49.296;11.348;2022-11-15T16:33:49;14.07;;;8.07;;
1603;SDS011;795;49.296;11.348;2022-11-15T16:36:22;10.47;;;8.50;;
1603;SDS011;795;49.296;11.348;2022-11-15T16:38:56;13.70;;;9.97;;
1603;SDS011;795;49.296;11.348;2022-11-15T16:41:24;9.93;;;8.20;;
1603;SDS011;795;49.296;11.348;2022-11-15T16:43:52;12.97;;;9.03;;
1603;SDS011;795;49.296;11.348;2022-11-15T16:46:26;11.80;;;9.60;;
1603;SDS011;795;49.296;11.348;2022-11-15T16:48:54;12.70;;;9.63;;
1603;SDS011;795;49.296;11.348;2022-11-15T16:51:22;12.27;;;8.90;;
1603;SDS011;795;49.296;11.348;2022-11-15T16:53:49;12.60;;;9.57;;
1603;SDS011;795;49.296;11.348;2022-11-15T16:58:56;11.67;;;8.10;;
1603;SDS011;795;49.296;11.348;2022-11-15T17:04:01;14.83;;;11.30;;
1603;SDS011;795;49.296;11.348;2022-11-15T17:06:38;9.83;;;8.73;;
1603;SDS011;795;49.296;11.348;2022-11-15T17:09:11;15.60;;;11.83;;
1603;SDS011;795;49.296;11.348;2022-11-15T17:11:45;13.73;;;10.20;;
1603;SDS011;795;49.296;11.348;2022-11-15T17:14:12;15.87;;;12.07;;
1603;SDS011;795;49.296;11.348;2022-11-15T17:16:39;20.57;;;12.90;;
1603;SDS011;795;49.296;11.348;2022-11-15T17:19:14;19.20;;;11.87;;
1603;SDS011;795;49.296;11.348;2022-11-15T17:21:46;17.30;;;12.57;;
1603;SDS011;795;49.296;11.348;2022-11-15T17:24:14;19.63;;;13.37;;
1603;SDS011;795;49.296;11.348;2022-11-15T17:26:42;25.37;;;17.20;;
1603;SDS011;795;49.296;11.348;2022-11-15T17:29:09;26.53;;;16.90;;
1603;SDS011;795;49.296;11.348;2022-11-15T17:31:36;18.87;;;12.00;;
1603;SDS011;795;49.296;11.348;2022-11-15T17:34:04;16.63;;;10.50;;
1603;SDS011;795;49.296;11.348;2022-11-15T17:36:33;21.57;;;11.90;;
1603;SDS011;795;49.296;11.348;2022-11-15T17:39:00;16.10;;;11.90;;
1603;SDS011;795;49.296;11.348;2022-11-15T17:41:29;15.40;;;11.93;;
1603;SDS011;795;49.296;11.348;2022-11-15T17:43:57;13.87;;;12.43;;
1603;SDS011;795;49.296;11.348;2022-11-15T17:46:27;15.57;;;11.57;;
1603;SDS011;795;49.296;11.348;2022-11-15T17:48:55;16.07;;;10.70;;
1603;SDS011;795;49.296;11.348;2022-11-15T17:51:23;13.70;;;11.70;;
1603;SDS011;795;49.296;11.348;2022-11-15T17:53:50;12.90;;;10.23;;
1603;SDS011;795;49.296;11.348;2022-11-15T17:56:19;14.67;;;11.00;;
1603;SDS011;795;49.296;11.348;2022-11-15T17:58:49;13.37;;;9.50;;
1603;SDS011;795;49.296;11.348;2022-11-15T18:01:30;11.17;;;8.90;;
1603;SDS011;795;49.296;11.348;2022-11-15T18:04:01;14.23;;;10.00;;